sensor_id;sensor_type;location;lat;lon;timestamp;P1;durP1;ratioP1;P2;durP2;ratioP2
18316;SDS011;9284;52.298;21.164;2023-03-11T00:00:46;30.88;;;16.52;;
18316;SDS011;9284;52.298;21.164;2023-03-11T00:03:19;32.97;;;15.93;;
18316;SDS011;9284;52.298;21.164;2023-03-11T04:09:55;24.33;;;11.27;;
18316;SDS011;9284;52.298;21.164;2023-03-11T04:12:24;22.30;;;10.98;;
18316;SDS011;9284;52.298;21.164;2023-03-11T04:14:52;24.33;;;10.60;;
18316;SDS011;9284;52.298;21.164;2023-03-11T04:17:21;17.27;;;9.82;;
18316;SDS011;9284;52.298;21.164;2023-03-11T04:19:52;20.58;;;10.65;;
18316;SDS011;9284;52.298;21.164;2023-03-11T04:22:20;22.77;;;10.15;;
18316;SDS011;9284;52.298;21.164;2023-03-11T04:24:48;19.42;;;10.27;;
18316;SDS011;9284;52.298;21.164;2023-03-11T04:27:18;20.13;;;10.27;;
18316;SDS011;9284;52.298;21.164;2023-03-11T04:29:46;16.88;;;10.00;;
18316;SDS011;9284;52.298;21.164;2023-03-11T04:32:15;17.15;;;9.55;;
18316;SDS011;9284;52.298;21.164;2023-03-11T04:34:44;20.63;;;10.40;;
18316;SDS011;9284;52.298;21.164;2023-03-11T04:37:13;17.20;;;9.88;;
18316;SDS011;9284;52.298;21.164;2023-03-11T04:39:42;20.02;;;9.23;;
18316;SDS011;9284;52.298;21.164;2023-03-11T04:42:10;18.13;;;9.73;;
18316;SDS011;9284;52.298;21.164;2023-03-11T04:44:43;17.35;;;8.93;;
18316;SDS011;9284;52.298;21.164;2023-03-11T04:47:11;22.17;;;10.23;;
18316;SDS011;9284;52.298;21.164;2023-03-11T04:49:40;19.67;;;9.70;;
18316;SDS011;9284;52.298;21.164;2023-03-11T04:52:10;18.02;;;8.90;;
18316;SDS011;9284;52.298;21.164;2023-03-11T04:54:38;18.77;;;9.15;;
18316;SDS011;9284;52.298;21.164;2023-03-11T04:57:07;19.85;;;9.85;;
18316;SDS011;9284;52.298;21.164;2023-03-11T04:59:37;16.88;;;9.07;;
18316;SDS011;9284;52.298;21.164;2023-03-11T05:02:08;17.92;;;10.35;;
18316;SDS011;9284;52.298;21.164;2023-03-11T05:04:43;20.20;;;10.68;;
18316;SDS011;9284;52.298;21.164;2023-03-11T05:07:13;17.65;;;9.85;;
18316;SDS011;9284;52.298;21.164;2023-03-11T05:09:43;21.15;;;10.50;;
18316;SDS011;9284;52.298;21.164;2023-03-11T05:12:12;20.20;;;10.27;;
18316;SDS011;9284;52.298;21.164;2023-03-11T05:14:44;17.95;;;9.48;;
18316;SDS011;9284;52.298;21.164;2023-03-11T05:17:14;19.27;;;10.02;;
18316;SDS011;9284;52.298;21.164;2023-03-11T05:19:46;19.85;;;9.93;;
18316;SDS011;9284;52.298;21.164;2023-03-11T05:22:25;20.30;;;10.02;;
18316;SDS011;9284;52.298;21.164;2023-03-11T05:24:54;16.95;;;9.18;;
18316;SDS011;9284;52.298;21.164;2023-03-11T05:27:22;18.63;;;9.80;;
18316;SDS011;9284;52.298;21.164;2023-03-11T05:29:54;19.15;;;9.88;;
18316;SDS011;9284;52.298;21.164;2023-03-11T05:32:26;23.27;;;11.73;;
18316;SDS011;9284;52.298;21.164;2023-03-11T05:34:54;26.00;;;10.70;;
18316;SDS011;9284;52.298;21.164;2023-03-11T05:37:22;23.77;;;11.10;;
18316;SDS011;9284;52.298;21.164;2023-03-11T05:39:53;20.80;;;10.45;;
18316;SDS011;9284;52.298;21.164;2023-03-11T05:42:22;20.63;;;10.50;;
18316;SDS011;9284;52.298;21.164;2023-03-11T05:44:54;21.33;;;9.70;;
18316;SDS011;9284;52.298;21.164;2023-03-11T05:47:25;19.30;;;9.73;;
18316;SDS011;9284;52.298;21.164;2023-03-11T05:49:55;20.20;;;10.15;;
18316;SDS011;9284;52.298;21.164;2023-03-11T05:52:23;17.65;;;9.38;;
18316;SDS011;9284;52.298;21.164;2023-03-11T05:54:52;18.20;;;9.30;;
18316;SDS011;9284;52.298;21.164;2023-03-11T05:57:24;22.17;;;10.18;;
18316;SDS011;9284;52.298;21.164;2023-03-11T05:59:52;19.30;;;9.90;;
18316;SDS011;9284;52.298;21.164;2023-03-11T06:02:21;18.30;;;9.30;;
18316;SDS011;9284;52.298;21.164;2023-03-11T06:04:51;20.40;;;9.20;;
18316;SDS011;9284;52.298;21.164;2023-03-11T06:07:20;15.80;;;9.23;;
18316;SDS011;9284;52.298;21.164;2023-03-11T06:09:48;17.48;;;9.00;;
18316;SDS011;9284;52.298;21.164;2023-03-11T06:12:17;18.55;;;9.57;;
18316;SDS011;9284;52.298;21.164;2023-03-11T06:15:15;15.52;;;8.57;;
18316;SDS011;9284;52.298;21.164;2023-03-11T06:17:43;19.42;;;8.65;;
18316;SDS011;9284;52.298;21.164;2023-03-11T06:20:14;17.30;;;8.15;;
18316;SDS011;9284;52.298;21.164;2023-03-11T06:22:42;15.55;;;8.25;;
18316;SDS011;9284;52.298;21.164;2023-03-11T06:25:11;14.27;;;8.52;;
18316;SDS011;9284;52.298;21.164;2023-03-11T06:27:41;18.48;;;8.88;;
18316;SDS011;9284;52.298;21.164;2023-03-11T06:30:11;18.67;;;8.70;;
18316;SDS011;9284;52.298;21.164;2023-03-11T06:32:47;19.17;;;8.27;;
18316;SDS011;9284;52.298;21.164;2023-03-11T06:35:17;17.42;;;8.65;;
18316;SDS011;9284;52.298;21.164;2023-03-11T06:37:45;15.15;;;7.85;;
18316;SDS011;9284;52.298;21.164;2023-03-11T06:42:44;18.05;;;8.95;;
18316;SDS011;9284;52.298;21.164;2023-03-11T06:45:13;17.60;;;9.02;;
18316;SDS011;9284;52.298;21.164;2023-03-11T06:47:44;15.25;;;8.35;;
18316;SDS011;9284;52.298;21.164;2023-03-11T06:50:12;15.35;;;7.82;;
18316;SDS011;9284;52.298;21.164;2023-03-11T06:52:42;15.32;;;8.27;;
18316;SDS011;9284;52.298;21.164;2023-03-11T06:55:10;16.08;;;8.35;;
18316;SDS011;9284;52.298;21.164;2023-03-11T06:57:39;17.50;;;8.75;;
18316;SDS011;9284;52.298;21.164;2023-03-11T07:00:11;15.40;;;8.10;;
18316;SDS011;9284;52.298;21.164;2023-03-11T07:02:46;22.75;;;9.50;;
18316;SDS011;9284;52.298;21.164;2023-03-11T07:05:15;21.45;;;10.57;;
18316;SDS011;9284;52.298;21.164;2023-03-11T07:07:47;18.10;;;9.20;;
18316;SDS011;9284;52.298;21.164;2023-03-11T07:10:15;15.13;;;7.90;;
18316;SDS011;9284;52.298;21.164;2023-03-11T07:12:44;12.13;;;6.38;;
18316;SDS011;9284;52.298;21.164;2023-03-11T07:15:13;9.68;;;6.05;;
18316;SDS011;9284;52.298;21.164;2023-03-11T07:17:41;11.85;;;6.03;;
18316;SDS011;9284;52.298;21.164;2023-03-11T07:20:10;10.65;;;6.38;;
18316;SDS011;9284;52.298;21.164;2023-03-11T07:22:39;12.30;;;6.15;;
18316;SDS011;9284;52.298;21.164;2023-03-11T07:25:09;10.85;;;6.43;;
18316;SDS011;9284;52.298;21.164;2023-03-11T07:27:37;10.95;;;6.78;;
18316;SDS011;9284;52.298;21.164;2023-03-11T07:30:06;12.90;;;7.13;;
18316;SDS011;9284;52.298;21.164;2023-03-11T07:32:35;12.50;;;7.18;;
18316;SDS011;9284;52.298;21.164;2023-03-11T07:35:04;15.77;;;8.00;;
18316;SDS011;9284;52.298;21.164;2023-03-11T07:37:33;13.55;;;8.00;;
18316;SDS011;9284;52.298;21.164;2023-03-11T07:40:01;13.55;;;7.88;;
18316;SDS011;9284;52.298;21.164;2023-03-11T07:42:31;11.75;;;7.30;;
18316;SDS011;9284;52.298;21.164;2023-03-11T07:45:00;14.55;;;8.75;;
18316;SDS011;9284;52.298;21.164;2023-03-11T07:47:28;14.23;;;9.05;;
18316;SDS011;9284;52.298;21.164;2023-03-11T07:49:57;14.95;;;8.57;;
18316;SDS011;9284;52.298;21.164;2023-03-11T07:52:28;12.52;;;8.32;;
18316;SDS011;9284;52.298;21.164;2023-03-11T07:54:56;12.77;;;8.30;;
18316;SDS011;9284;52.298;21.164;2023-03-11T07:57:25;12.90;;;8.73;;
18316;SDS011;9284;52.298;21.164;2023-03-11T07:59:54;15.40;;;8.88;;
18316;SDS011;9284;52.298;21.164;2023-03-11T08:02:23;14.38;;;8.85;;
18316;SDS011;9284;52.298;21.164;2023-03-11T08:04:51;13.27;;;8.18;;
18316;SDS011;9284;52.298;21.164;2023-03-11T08:07:19;14.10;;;9.20;;
18316;SDS011;9284;52.298;21.164;2023-03-11T08:09:47;14.55;;;8.60;;
18316;SDS011;9284;52.298;21.164;2023-03-11T08:12:16;14.30;;;8.65;;
18316;SDS011;9284;52.298;21.164;2023-03-11T08:14:44;13.45;;;8.82;;
18316;SDS011;9284;52.298;21.164;2023-03-11T08:17:13;16.15;;;10.35;;
18316;SDS011;9284;52.298;21.164;2023-03-11T08:19:42;16.63;;;10.88;;
18316;SDS011;9284;52.298;21.164;2023-03-11T08:22:10;17.33;;;10.82;;
18316;SDS011;9284;52.298;21.164;2023-03-11T08:24:38;17.00;;;10.60;;
18316;SDS011;9284;52.298;21.164;2023-03-11T08:27:07;17.98;;;10.07;;
18316;SDS011;9284;52.298;21.164;2023-03-11T08:29:37;14.98;;;9.48;;
18316;SDS011;9284;52.298;21.164;2023-03-11T08:32:06;15.73;;;9.93;;
18316;SDS011;9284;52.298;21.164;2023-03-11T08:34:36;18.83;;;11.75;;
18316;SDS011;9284;52.298;21.164;2023-03-11T08:37:05;18.55;;;11.98;;
18316;SDS011;9284;52.298;21.164;2023-03-11T08:39:33;20.65;;;12.50;;
18316;SDS011;9284;52.298;21.164;2023-03-11T08:42:01;19.95;;;12.80;;
18316;SDS011;9284;52.298;21.164;2023-03-11T08:44:29;16.65;;;11.20;;
18316;SDS011;9284;52.298;21.164;2023-03-11T08:46:59;18.17;;;11.93;;
18316;SDS011;9284;52.298;21.164;2023-03-11T08:49:27;18.30;;;11.35;;
18316;SDS011;9284;52.298;21.164;2023-03-11T08:51:57;15.68;;;10.43;;
18316;SDS011;9284;52.298;21.164;2023-03-11T08:54:26;16.10;;;10.32;;
18316;SDS011;9284;52.298;21.164;2023-03-11T08:56:54;16.25;;;9.45;;
18316;SDS011;9284;52.298;21.164;2023-03-11T08:59:24;15.90;;;9.98;;
18316;SDS011;9284;52.298;21.164;2023-03-11T09:01:52;16.92;;;9.55;;
18316;SDS011;9284;52.298;21.164;2023-03-11T09:04:20;16.95;;;11.13;;
18316;SDS011;9284;52.298;21.164;2023-03-11T09:06:49;15.70;;;10.45;;
18316;SDS011;9284;52.298;21.164;2023-03-11T09:09:18;19.17;;;10.43;;
18316;SDS011;9284;52.298;21.164;2023-03-11T09:11:47;16.05;;;10.20;;
18316;SDS011;9284;52.298;21.164;2023-03-11T09:14:15;16.30;;;10.70;;
18316;SDS011;9284;52.298;21.164;2023-03-11T09:16:44;17.10;;;10.30;;
18316;SDS011;9284;52.298;21.164;2023-03-11T09:19:12;20.10;;;11.90;;
18316;SDS011;9284;52.298;21.164;2023-03-11T09:21:40;21.23;;;11.65;;
18316;SDS011;9284;52.298;21.164;2023-03-11T09:24:09;19.95;;;11.13;;
18316;SDS011;9284;52.298;21.164;2023-03-11T09:26:38;23.88;;;12.18;;
18316;SDS011;9284;52.298;21.164;2023-03-11T09:29:06;23.15;;;12.93;;
18316;SDS011;9284;52.298;21.164;2023-03-11T09:31:35;27.98;;;13.85;;
18316;SDS011;9284;52.298;21.164;2023-03-11T09:34:04;28.02;;;14.93;;
18316;SDS011;9284;52.298;21.164;2023-03-11T09:36:32;28.15;;;15.77;;
18316;SDS011;9284;52.298;21.164;2023-03-11T09:39:01;29.30;;;16.55;;
18316;SDS011;9284;52.298;21.164;2023-03-11T09:41:32;30.75;;;16.80;;
18316;SDS011;9284;52.298;21.164;2023-03-11T09:44:26;26.20;;;14.45;;
18316;SDS011;9284;52.298;21.164;2023-03-11T09:47:05;28.90;;;16.17;;
18316;SDS011;9284;52.298;21.164;2023-03-11T09:49:53;29.15;;;15.25;;
18316;SDS011;9284;52.298;21.164;2023-03-11T09:52:34;30.30;;;15.95;;
18316;SDS011;9284;52.298;21.164;2023-03-11T09:55:20;36.03;;;17.70;;
18316;SDS011;9284;52.298;21.164;2023-03-11T09:57:56;38.88;;;19.10;;
18316;SDS011;9284;52.298;21.164;2023-03-11T10:00:31;36.13;;;19.80;;
18316;SDS011;9284;52.298;21.164;2023-03-11T10:02:59;34.15;;;17.80;;
18316;SDS011;9284;52.298;21.164;2023-03-11T10:05:29;37.80;;;19.02;;
18316;SDS011;9284;52.298;21.164;2023-03-11T10:07:59;35.35;;;18.65;;
18316;SDS011;9284;52.298;21.164;2023-03-11T10:10:37;37.50;;;18.08;;
18316;SDS011;9284;52.298;21.164;2023-03-11T10:13:12;42.42;;;20.02;;
18316;SDS011;9284;52.298;21.164;2023-03-11T10:15:46;41.55;;;18.25;;
18316;SDS011;9284;52.298;21.164;2023-03-11T10:18:22;40.78;;;18.20;;
18316;SDS011;9284;52.298;21.164;2023-03-11T10:21:01;33.83;;;14.73;;
18316;SDS011;9284;52.298;21.164;2023-03-11T10:23:36;30.88;;;13.05;;
18316;SDS011;9284;52.298;21.164;2023-03-11T10:26:23;26.70;;;12.32;;
18316;SDS011;9284;52.298;21.164;2023-03-11T10:28:59;23.15;;;11.60;;
18316;SDS011;9284;52.298;21.164;2023-03-11T10:31:36;23.77;;;11.77;;
18316;SDS011;9284;52.298;21.164;2023-03-11T10:34:11;24.90;;;10.73;;
18316;SDS011;9284;52.298;21.164;2023-03-11T10:36:47;21.85;;;9.90;;
18316;SDS011;9284;52.298;21.164;2023-03-11T10:39:20;19.48;;;9.73;;
18316;SDS011;9284;52.298;21.164;2023-03-11T10:41:49;15.43;;;7.38;;
18316;SDS011;9284;52.298;21.164;2023-03-11T10:44:22;15.27;;;7.47;;
18316;SDS011;9284;52.298;21.164;2023-03-11T10:46:57;13.17;;;7.53;;
18316;SDS011;9284;52.298;21.164;2023-03-11T10:49:25;12.67;;;6.77;;
18316;SDS011;9284;52.298;21.164;2023-03-11T10:51:54;12.30;;;7.37;;
18316;SDS011;9284;52.298;21.164;2023-03-11T10:54:25;11.13;;;6.20;;
18316;SDS011;9284;52.298;21.164;2023-03-11T10:56:56;10.47;;;6.43;;
18316;SDS011;9284;52.298;21.164;2023-03-11T10:59:27;13.13;;;6.93;;
18316;SDS011;9284;52.298;21.164;2023-03-11T11:01:58;12.07;;;6.83;;
18316;SDS011;9284;52.298;21.164;2023-03-11T11:04:29;12.03;;;6.97;;
18316;SDS011;9284;52.298;21.164;2023-03-11T11:07:26;13.00;;;6.60;;
18316;SDS011;9284;52.298;21.164;2023-03-11T11:12:51;11.87;;;6.43;;
18316;SDS011;9284;52.298;21.164;2023-03-11T11:15:22;12.13;;;6.90;;
18316;SDS011;9284;52.298;21.164;2023-03-11T11:17:55;11.87;;;6.63;;
18316;SDS011;9284;52.298;21.164;2023-03-11T11:20:25;10.90;;;6.77;;
18316;SDS011;9284;52.298;21.164;2023-03-11T11:22:56;12.47;;;7.00;;
18316;SDS011;9284;52.298;21.164;2023-03-11T11:25:27;14.07;;;8.27;;
18316;SDS011;9284;52.298;21.164;2023-03-11T11:27:59;9.73;;;7.07;;
18316;SDS011;9284;52.298;21.164;2023-03-11T11:30:29;9.80;;;6.83;;
18316;SDS011;9284;52.298;21.164;2023-03-11T11:33:15;9.37;;;6.30;;
18316;SDS011;9284;52.298;21.164;2023-03-11T11:35:49;7.50;;;5.50;;
18316;SDS011;9284;52.298;21.164;2023-03-11T11:38:20;6.73;;;4.83;;
18316;SDS011;9284;52.298;21.164;2023-03-11T11:40:50;6.97;;;5.30;;
18316;SDS011;9284;52.298;21.164;2023-03-11T11:43:24;6.27;;;4.47;;
18316;SDS011;9284;52.298;21.164;2023-03-11T11:46:00;8.37;;;5.57;;
18316;SDS011;9284;52.298;21.164;2023-03-11T11:48:38;7.40;;;5.23;;
18316;SDS011;9284;52.298;21.164;2023-03-11T11:51:15;6.90;;;4.90;;
18316;SDS011;9284;52.298;21.164;2023-03-11T11:53:49;7.90;;;5.47;;
18316;SDS011;9284;52.298;21.164;2023-03-11T11:56:23;8.83;;;6.13;;
18316;SDS011;9284;52.298;21.164;2023-03-11T11:58:52;8.97;;;5.47;;
18316;SDS011;9284;52.298;21.164;2023-03-11T12:01:23;7.60;;;5.10;;
18316;SDS011;9284;52.298;21.164;2023-03-11T12:07:15;8.70;;;5.57;;
18316;SDS011;9284;52.298;21.164;2023-03-11T12:09:51;8.17;;;5.43;;
18316;SDS011;9284;52.298;21.164;2023-03-11T12:12:43;9.47;;;5.40;;
18316;SDS011;9284;52.298;21.164;2023-03-11T12:15:23;9.27;;;5.80;;
18316;SDS011;9284;52.298;21.164;2023-03-11T12:17:55;9.33;;;6.23;;
18316;SDS011;9284;52.298;21.164;2023-03-11T12:20:29;9.47;;;6.43;;
18316;SDS011;9284;52.298;21.164;2023-03-11T12:25:56;11.80;;;7.40;;
18316;SDS011;9284;52.298;21.164;2023-03-11T12:28:35;10.27;;;6.93;;
18316;SDS011;9284;52.298;21.164;2023-03-11T12:31:10;13.90;;;7.40;;
18316;SDS011;9284;52.298;21.164;2023-03-11T12:33:39;15.73;;;8.30;;
18316;SDS011;9284;52.298;21.164;2023-03-11T12:36:19;11.83;;;6.90;;
18316;SDS011;9284;52.298;21.164;2023-03-11T12:38:51;11.90;;;6.73;;
18316;SDS011;9284;52.298;21.164;2023-03-11T12:41:28;10.10;;;6.43;;
18316;SDS011;9284;52.298;21.164;2023-03-11T12:44:03;8.53;;;5.83;;
18316;SDS011;9284;52.298;21.164;2023-03-11T12:49:54;11.13;;;6.80;;
18316;SDS011;9284;52.298;21.164;2023-03-11T12:55:34;10.20;;;6.83;;
18316;SDS011;9284;52.298;21.164;2023-03-11T12:58:10;11.60;;;7.30;;
18316;SDS011;9284;52.298;21.164;2023-03-11T13:01:23;12.10;;;7.23;;
18316;SDS011;9284;52.298;21.164;2023-03-11T13:04:11;17.57;;;8.23;;
18316;SDS011;9284;52.298;21.164;2023-03-11T13:06:53;21.67;;;9.20;;
18316;SDS011;9284;52.298;21.164;2023-03-11T13:09:59;15.97;;;8.10;;
18316;SDS011;9284;52.298;21.164;2023-03-11T13:12:37;13.33;;;8.43;;
18316;SDS011;9284;52.298;21.164;2023-03-11T13:15:24;13.43;;;8.53;;
18316;SDS011;9284;52.298;21.164;2023-03-11T13:17:58;14.03;;;8.17;;
18316;SDS011;9284;52.298;21.164;2023-03-11T13:20:50;15.07;;;7.93;;
18316;SDS011;9284;52.298;21.164;2023-03-11T13:23:26;14.00;;;8.23;;
18316;SDS011;9284;52.298;21.164;2023-03-11T13:26:24;14.27;;;8.37;;
18316;SDS011;9284;52.298;21.164;2023-03-11T13:29:08;13.97;;;8.83;;
18316;SDS011;9284;52.298;21.164;2023-03-11T13:32:08;12.67;;;7.83;;
18316;SDS011;9284;52.298;21.164;2023-03-11T13:34:47;14.90;;;8.97;;
18316;SDS011;9284;52.298;21.164;2023-03-11T13:37:23;16.40;;;8.70;;
18316;SDS011;9284;52.298;21.164;2023-03-11T13:40:10;13.80;;;8.23;;
18316;SDS011;9284;52.298;21.164;2023-03-11T13:42:47;17.30;;;9.37;;
18316;SDS011;9284;52.298;21.164;2023-03-11T13:45:21;17.13;;;9.20;;
18316;SDS011;9284;52.298;21.164;2023-03-11T13:47:55;22.53;;;11.27;;
18316;SDS011;9284;52.298;21.164;2023-03-11T13:50:27;18.87;;;10.20;;
18316;SDS011;9284;52.298;21.164;2023-03-11T13:52:58;14.43;;;8.93;;
18316;SDS011;9284;52.298;21.164;2023-03-11T13:55:31;14.07;;;8.77;;
18316;SDS011;9284;52.298;21.164;2023-03-11T13:58:12;13.67;;;8.77;;
18316;SDS011;9284;52.298;21.164;2023-03-11T14:00:46;17.67;;;9.57;;
18316;SDS011;9284;52.298;21.164;2023-03-11T14:03:16;17.33;;;9.50;;
18316;SDS011;9284;52.298;21.164;2023-03-11T14:05:49;17.03;;;9.90;;
18316;SDS011;9284;52.298;21.164;2023-03-11T14:08:25;15.93;;;9.10;;
18316;SDS011;9284;52.298;21.164;2023-03-11T14:10:55;17.00;;;9.13;;
18316;SDS011;9284;52.298;21.164;2023-03-11T14:13:26;19.63;;;8.90;;
18316;SDS011;9284;52.298;21.164;2023-03-11T14:15:58;13.30;;;8.33;;
18316;SDS011;9284;52.298;21.164;2023-03-11T14:18:31;16.57;;;9.13;;
18316;SDS011;9284;52.298;21.164;2023-03-11T14:21:05;16.67;;;9.03;;
18316;SDS011;9284;52.298;21.164;2023-03-11T14:23:39;16.80;;;8.07;;
18316;SDS011;9284;52.298;21.164;2023-03-11T14:26:12;20.50;;;9.47;;
18316;SDS011;9284;52.298;21.164;2023-03-11T14:28:44;13.87;;;8.23;;
18316;SDS011;9284;52.298;21.164;2023-03-11T14:31:22;14.00;;;7.07;;
18316;SDS011;9284;52.298;21.164;2023-03-11T14:33:56;13.23;;;7.47;;
18316;SDS011;9284;52.298;21.164;2023-03-11T14:36:30;10.90;;;6.17;;
18316;SDS011;9284;52.298;21.164;2023-03-11T14:39:29;13.50;;;6.40;;
18316;SDS011;9284;52.298;21.164;2023-03-11T14:42:01;10.80;;;6.57;;
18316;SDS011;9284;52.298;21.164;2023-03-11T14:44:36;10.80;;;6.27;;
18316;SDS011;9284;52.298;21.164;2023-03-11T14:47:09;13.70;;;6.27;;
18316;SDS011;9284;52.298;21.164;2023-03-11T14:49:43;11.47;;;5.60;;
18316;SDS011;9284;52.298;21.164;2023-03-11T14:52:14;9.37;;;5.60;;
18316;SDS011;9284;52.298;21.164;2023-03-11T14:54:45;8.73;;;4.87;;
18316;SDS011;9284;52.298;21.164;2023-03-11T14:57:17;10.80;;;5.20;;
18316;SDS011;9284;52.298;21.164;2023-03-11T14:59:50;12.63;;;5.50;;
18316;SDS011;9284;52.298;21.164;2023-03-11T15:02:29;10.60;;;5.37;;
18316;SDS011;9284;52.298;21.164;2023-03-11T15:05:07;11.13;;;5.17;;
18316;SDS011;9284;52.298;21.164;2023-03-11T15:07:44;6.80;;;4.27;;
18316;SDS011;9284;52.298;21.164;2023-03-11T15:10:14;9.43;;;3.80;;
18316;SDS011;9284;52.298;21.164;2023-03-11T15:12:42;10.23;;;4.10;;
18316;SDS011;9284;52.298;21.164;2023-03-11T15:15:26;11.40;;;4.30;;
18316;SDS011;9284;52.298;21.164;2023-03-11T15:17:56;7.93;;;3.93;;
18316;SDS011;9284;52.298;21.164;2023-03-11T15:20:26;8.87;;;4.73;;
18316;SDS011;9284;52.298;21.164;2023-03-11T15:22:57;7.43;;;3.93;;
18316;SDS011;9284;52.298;21.164;2023-03-11T15:25:30;9.57;;;4.77;;
18316;SDS011;9284;52.298;21.164;2023-03-11T15:28:12;7.70;;;4.37;;
18316;SDS011;9284;52.298;21.164;2023-03-11T15:30:48;10.73;;;4.97;;
18316;SDS011;9284;52.298;21.164;2023-03-11T15:33:21;8.97;;;4.40;;
18316;SDS011;9284;52.298;21.164;2023-03-11T15:35:50;9.87;;;4.33;;
18316;SDS011;9284;52.298;21.164;2023-03-11T15:38:19;6.57;;;3.83;;
18316;SDS011;9284;52.298;21.164;2023-03-11T15:40:52;6.83;;;4.03;;
18316;SDS011;9284;52.298;21.164;2023-03-11T15:43:22;7.77;;;4.13;;
18316;SDS011;9284;52.298;21.164;2023-03-11T15:45:56;8.43;;;4.33;;
18316;SDS011;9284;52.298;21.164;2023-03-11T15:48:27;6.77;;;3.90;;
18316;SDS011;9284;52.298;21.164;2023-03-11T15:50:57;7.67;;;4.17;;
18316;SDS011;9284;52.298;21.164;2023-03-11T15:53:27;7.37;;;3.80;;
18316;SDS011;9284;52.298;21.164;2023-03-11T15:55:56;6.67;;;3.37;;
18316;SDS011;9284;52.298;21.164;2023-03-11T15:58:34;9.23;;;3.10;;
18316;SDS011;9284;52.298;21.164;2023-03-11T16:01:04;6.53;;;3.37;;
18316;SDS011;9284;52.298;21.164;2023-03-11T16:03:33;8.40;;;4.20;;
18316;SDS011;9284;52.298;21.164;2023-03-11T16:06:02;12.77;;;4.17;;
18316;SDS011;9284;52.298;21.164;2023-03-11T16:08:30;8.30;;;3.37;;
18316;SDS011;9284;52.298;21.164;2023-03-11T16:11:00;11.27;;;3.97;;
18316;SDS011;9284;52.298;21.164;2023-03-11T16:13:28;7.80;;;3.40;;
18316;SDS011;9284;52.298;21.164;2023-03-11T16:15:58;9.47;;;4.07;;
18316;SDS011;9284;52.298;21.164;2023-03-11T16:18:31;10.67;;;4.20;;
18316;SDS011;9284;52.298;21.164;2023-03-11T16:21:01;11.13;;;4.30;;
18316;SDS011;9284;52.298;21.164;2023-03-11T16:23:35;6.53;;;4.00;;
18316;SDS011;9284;52.298;21.164;2023-03-11T16:26:17;10.83;;;4.50;;
18316;SDS011;9284;52.298;21.164;2023-03-11T16:28:46;7.87;;;4.20;;
18316;SDS011;9284;52.298;21.164;2023-03-11T16:31:14;10.03;;;4.10;;
18316;SDS011;9284;52.298;21.164;2023-03-11T16:33:44;9.67;;;4.33;;
18316;SDS011;9284;52.298;21.164;2023-03-11T16:36:12;8.60;;;4.40;;
18316;SDS011;9284;52.298;21.164;2023-03-11T16:38:42;9.47;;;4.80;;
18316;SDS011;9284;52.298;21.164;2023-03-11T16:41:11;9.67;;;4.97;;
18316;SDS011;9284;52.298;21.164;2023-03-11T16:43:40;9.53;;;5.00;;
18316;SDS011;9284;52.298;21.164;2023-03-11T16:46:09;8.73;;;4.37;;
18316;SDS011;9284;52.298;21.164;2023-03-11T16:48:37;11.40;;;5.43;;
18316;SDS011;9284;52.298;21.164;2023-03-11T16:51:07;13.47;;;6.20;;
18316;SDS011;9284;52.298;21.164;2023-03-11T16:53:35;15.30;;;6.87;;
18316;SDS011;9284;52.298;21.164;2023-03-11T16:56:04;15.50;;;7.03;;
18316;SDS011;9284;52.298;21.164;2023-03-11T16:58:33;12.27;;;5.80;;
18316;SDS011;9284;52.298;21.164;2023-03-11T17:01:01;11.37;;;5.57;;
18316;SDS011;9284;52.298;21.164;2023-03-11T17:03:29;14.93;;;6.50;;
18316;SDS011;9284;52.298;21.164;2023-03-11T17:06:09;8.00;;;4.17;;
18316;SDS011;9284;52.298;21.164;2023-03-11T17:08:37;10.07;;;4.70;;
18316;SDS011;9284;52.298;21.164;2023-03-11T17:11:12;8.47;;;4.00;;
18316;SDS011;9284;52.298;21.164;2023-03-11T17:13:41;8.10;;;3.60;;
18316;SDS011;9284;52.298;21.164;2023-03-11T17:16:15;7.80;;;3.80;;
18316;SDS011;9284;52.298;21.164;2023-03-11T17:18:44;9.20;;;4.37;;
18316;SDS011;9284;52.298;21.164;2023-03-11T17:21:14;10.03;;;4.63;;
18316;SDS011;9284;52.298;21.164;2023-03-11T17:23:43;14.67;;;6.20;;
18316;SDS011;9284;52.298;21.164;2023-03-11T17:26:12;18.50;;;6.57;;
18316;SDS011;9284;52.298;21.164;2023-03-11T17:28:41;12.43;;;6.33;;
18316;SDS011;9284;52.298;21.164;2023-03-11T17:31:10;13.17;;;4.97;;
18316;SDS011;9284;52.298;21.164;2023-03-11T17:33:42;7.37;;;4.40;;
18316;SDS011;9284;52.298;21.164;2023-03-11T17:36:12;8.63;;;4.43;;
18316;SDS011;9284;52.298;21.164;2023-03-11T17:38:43;11.60;;;5.47;;
18316;SDS011;9284;52.298;21.164;2023-03-11T17:41:13;9.77;;;4.80;;
18316;SDS011;9284;52.298;21.164;2023-03-11T17:43:43;13.57;;;5.90;;
18316;SDS011;9284;52.298;21.164;2023-03-11T17:46:14;11.10;;;5.23;;
18316;SDS011;9284;52.298;21.164;2023-03-11T17:48:44;11.10;;;5.10;;
18316;SDS011;9284;52.298;21.164;2023-03-11T17:51:16;10.73;;;5.53;;
18316;SDS011;9284;52.298;21.164;2023-03-11T17:53:46;13.30;;;5.80;;
18316;SDS011;9284;52.298;21.164;2023-03-11T17:56:15;14.33;;;5.60;;
18316;SDS011;9284;52.298;21.164;2023-03-11T17:58:45;14.47;;;5.17;;
18316;SDS011;9284;52.298;21.164;2023-03-11T18:01:15;6.87;;;3.80;;
18316;SDS011;9284;52.298;21.164;2023-03-11T18:03:45;8.70;;;4.67;;
18316;SDS011;9284;52.298;21.164;2023-03-11T18:06:16;10.43;;;5.07;;
18316;SDS011;9284;52.298;21.164;2023-03-11T18:08:45;7.60;;;4.33;;
18316;SDS011;9284;52.298;21.164;2023-03-11T18:11:14;8.30;;;4.80;;
18316;SDS011;9284;52.298;21.164;2023-03-11T18:13:44;12.43;;;5.13;;
18316;SDS011;9284;52.298;21.164;2023-03-11T18:16:14;11.37;;;5.33;;
18316;SDS011;9284;52.298;21.164;2023-03-11T18:18:44;13.10;;;5.67;;
18316;SDS011;9284;52.298;21.164;2023-03-11T18:21:15;15.00;;;5.77;;
18316;SDS011;9284;52.298;21.164;2023-03-11T18:23:45;10.83;;;4.80;;
18316;SDS011;9284;52.298;21.164;2023-03-11T18:26:14;11.83;;;5.00;;
18316;SDS011;9284;52.298;21.164;2023-03-11T18:28:44;10.17;;;5.33;;
18316;SDS011;9284;52.298;21.164;2023-03-11T18:31:13;9.50;;;4.63;;
18316;SDS011;9284;52.298;21.164;2023-03-11T18:33:46;11.43;;;4.40;;
18316;SDS011;9284;52.298;21.164;2023-03-11T18:36:18;10.20;;;4.60;;
18316;SDS011;9284;52.298;21.164;2023-03-11T18:38:47;11.70;;;5.23;;
18316;SDS011;9284;52.298;21.164;2023-03-11T18:41:18;13.87;;;5.53;;
18316;SDS011;9284;52.298;21.164;2023-03-11T18:43:48;14.10;;;5.47;;
18316;SDS011;9284;52.298;21.164;2023-03-11T18:46:19;13.40;;;6.33;;
18316;SDS011;9284;52.298;21.164;2023-03-11T18:48:47;11.93;;;5.43;;
18316;SDS011;9284;52.298;21.164;2023-03-11T18:51:17;18.90;;;5.97;;
18316;SDS011;9284;52.298;21.164;2023-03-11T18:53:46;14.07;;;5.07;;
18316;SDS011;9284;52.298;21.164;2023-03-11T18:56:14;14.97;;;5.63;;
18316;SDS011;9284;52.298;21.164;2023-03-11T18:58:44;11.90;;;5.53;;
18316;SDS011;9284;52.298;21.164;2023-03-11T19:01:13;14.53;;;4.80;;
18316;SDS011;9284;52.298;21.164;2023-03-11T19:03:43;11.47;;;5.10;;
18316;SDS011;9284;52.298;21.164;2023-03-11T19:06:15;15.40;;;5.87;;
18316;SDS011;9284;52.298;21.164;2023-03-11T19:08:45;11.73;;;5.03;;
18316;SDS011;9284;52.298;21.164;2023-03-11T19:11:14;27.30;;;10.07;;
18316;SDS011;9284;52.298;21.164;2023-03-11T19:13:44;24.10;;;9.03;;
18316;SDS011;9284;52.298;21.164;2023-03-11T19:16:14;10.87;;;5.27;;
18316;SDS011;9284;52.298;21.164;2023-03-11T19:18:43;10.50;;;5.00;;
18316;SDS011;9284;52.298;21.164;2023-03-11T19:21:13;9.23;;;5.17;;
18316;SDS011;9284;52.298;21.164;2023-03-11T19:23:42;10.73;;;4.90;;